Time;durP1;ratioP1;P1;durP2;ratioP2;P2;SDS_P1;SDS_P2;PMS_P1;PMS_P2;Temp;Humidity;BMP_temperature;BMP_pressure;BME280_temperature;BME280_humidity;BME280_pressure;Samples;Min_cycle;Max_cycle;Signal;HPM_P1;HPM_P2
2023/03/07 10:19:35;;;;;;;18.27;12.25;;;4.60;99.90;;;;;;5107068;27;20422;-87
2023/03/07 10:22:29;;;;;;;18.90;12.07;;;4.70;99.90;;;;;;5123524;28;21073;-83
2023/03/07 10:26:03;;;;;;;;;;;4.70;99.90;;;;;;5081366;28;20496;-88
2023/03/07 10:28:30;;;;;;;;;;;4.70;99.90;;;;;;5078909;28;19912;-89
2023/03/07 10:31:12;;;;;;;20.15;12.52;;;4.70;99.90;;;;;;5088677;28;19908;-85
2023/03/07 10:33:41;;;;;;;22.27;14.20;;;4.70;99.90;;;;;;5089698;28;20495;-86
2023/03/07 10:36:16;;;;;;;20.02;12.95;;;4.70;99.90;;;;;;5089561;28;20071;-92
2023/03/07 10:39:11;;;;;;;21.23;13.18;;;4.70;99.90;;;;;;5077982;28;20416;-87
2023/03/07 10:41:36;;;;;;;21.00;13.75;;;4.70;99.90;;;;;;5090215;28;20034;-85
2023/03/07 10:44:02;;;;;;;27.02;14.60;;;4.70;99.90;;;;;;5085288;28;20020;-84
2023/03/07 10:46:29;;;;;;;24.38;13.95;;;4.80;99.90;;;;;;5101484;28;20028;-83
2023/03/07 10:49:06;;;;;;;22.08;12.65;;;4.90;99.90;;;;;;5095952;28;20047;-88
2023/03/07 10:52:03;;;;;;;17.05;12.15;;;4.70;99.90;;;;;;5088308;28;20396;-83
2023/03/07 10:54:31;;;;;;;21.13;13.52;;;4.80;99.90;;;;;;5064966;28;20056;-85
2023/03/07 10:57:13;;;;;;;21.90;13.32;;;4.80;99.90;;;;;;5086412;28;20029;-85
2023/03/07 10:59:42;;;;;;;20.25;13.55;;;4.80;99.90;;;;;;5089760;28;20396;-84
2023/03/07 11:02:43;;;;;;;20.95;13.63;;;4.90;99.90;;;;;;5091646;28;20023;-87
2023/03/07 11:05:30;;;;;;;21.88;12.95;;;4.90;99.90;;;;;;5087513;28;20048;-85
2023/03/07 11:07:56;;;;;;;20.13;12.93;;;4.90;99.90;;;;;;5090144;28;20062;-84
2023/03/07 11:10:40;;;;;;;16.50;11.52;;;4.90;99.90;;;;;;5090410;28;20035;-92
2023/03/07 11:13:18;;;;;;;21.23;12.77;;;4.90;99.90;;;;;;5091798;28;20020;-92
2023/03/07 11:15:47;;;;;;;20.83;13.48;;;5.00;99.90;;;;;;5087777;28;20028;-85
2023/03/07 11:18:26;;;;;;;22.40;13.77;;;5.00;99.90;;;;;;5096714;28;20024;-84
2023/03/07 11:20:56;;;;;;;22.63;14.68;;;5.00;99.90;;;;;;5089377;28;20492;-93
2023/03/07 11:23:30;;;;;;;21.10;13.40;;;5.00;99.90;;;;;;5082667;28;20119;-87
2023/03/07 11:26:12;;;;;;;25.25;14.93;;;5.00;99.90;;;;;;5077236;28;20493;-86
2023/03/07 11:28:39;;;;;;;27.23;13.52;;;5.10;99.90;;;;;;5089610;28;20031;-86
2023/03/07 11:31:13;;;;;;;22.08;13.55;;;5.10;99.90;;;;;;5086680;28;20043;-86
2023/03/07 11:33:44;;;;;;;20.90;13.43;;;5.20;99.90;;;;;;5095001;28;20035;-88
2023/03/07 11:36:15;;;;;;;20.65;13.30;;;5.20;99.90;;;;;;5081401;28;20027;-86
2023/03/07 11:39:20;;;;;;;18.92;12.75;;;5.20;99.90;;;;;;5085365;28;20477;-84
2023/03/07 11:41:52;;;;;;;18.92;12.43;;;5.10;99.90;;;;;;5070673;28;20113;-85
2023/03/07 11:44:39;;;;;;;5.68;4.35;;;5.10;99.90;;;;;;5079899;28;20040;-83
2023/03/07 11:47:23;;;;;;;3.47;3.00;;;4.90;99.90;;;;;;5071594;28;20036;-85
2023/03/07 11:49:51;;;;;;;2.85;2.13;;;4.70;99.90;;;;;;5062650;28;20508;-85
2023/03/07 11:52:55;;;;;;;2.20;2.00;;;4.40;99.90;;;;;;5070525;28;20020;-85
2023/03/07 11:55:35;;;;;;;1.55;1.50;;;4.00;99.90;;;;;;5070954;28;20028;-86
2023/03/07 11:58:10;;;;;;;4.25;3.15;;;3.80;99.90;;;;;;5071821;28;20115;-84
2023/03/07 12:00:57;;;;;;;6.53;3.60;;;3.60;99.90;;;;;;5066181;28;20046;-84
2023/03/07 12:03:41;;;;;;;5.97;3.63;;;3.30;99.90;;;;;;5081383;28;20050;-84
2023/03/07 12:06:42;;;;;;;7.22;2.97;;;3.00;99.90;;;;;;5074718;28;20043;-92
2023/03/07 12:09:30;;;;;;;1.70;1.60;;;2.80;99.90;;;;;;5070188;28;20040;-94
2023/03/07 12:12:12;;;;;;;1.73;1.63;;;2.70;99.90;;;;;;5076283;28;20020;-83
2023/03/07 12:15:05;;;;;;;1.95;1.85;;;2.60;99.90;;;;;;5073751;28;20504;-83
2023/03/07 12:17:40;;;;;;;1.75;1.63;;;2.50;99.90;;;;;;5075576;28;20063;-83
2023/03/07 12:20:43;;;;;;;1.92;1.83;;;2.30;99.90;;;;;;5077842;28;20340;-90
2023/03/07 12:23:26;;;;;;;2.40;2.30;;;2.20;99.90;;;;;;5075047;28;20035;-83
2023/03/07 12:25:56;;;;;;;1.80;1.55;;;2.10;99.90;;;;;;5078378;28;20048;-86
2023/03/07 12:28:31;;;;;;;1.70;1.60;;;2.10;99.90;;;;;;5079301;28;20055;-90
2023/03/07 12:31:07;;;;;;;1.30;1.30;;;2.20;99.90;;;;;;5087185;28;20028;-83
2023/03/07 12:34:12;;;;;;;3.88;2.35;;;2.10;99.90;;;;;;5076057;28;20037;-94
2023/03/07 12:36:52;;;;;;;1.88;1.75;;;2.10;99.90;;;;;;5054327;28;20047;-83
2023/03/07 12:39:34;;;;;;;2.08;1.92;;;2.00;99.90;;;;;;5072759;28;20024;-84
2023/03/07 12:42:24;;;;;;;2.22;2.10;;;1.80;99.90;;;;;;5083893;28;20036;-84
2023/03/07 12:44:56;;;;;;;6.07;3.25;;;1.90;99.90;;;;;;5065004;28;20044;-88
2023/03/07 12:48:20;;;;;;;7.50;5.00;;;1.90;99.90;;;;;;5062415;28;20028;-86
2023/03/07 12:51:10;;;;;;;7.43;3.22;;;1.90;99.90;;;;;;4974931;28;20053;-84
2023/03/07 12:53:54;;;;;;;15.52;8.20;;;1.80;99.90;;;;;;4970020;28;20039;-84
2023/03/07 12:56:38;;;;;;;23.40;11.13;;;1.80;99.90;;;;;;5038587;28;20131;-83
2023/03/07 12:59:12;;;;;;;3.20;2.88;;;1.80;99.90;;;;;;5081834;28;20396;-84
2023/03/07 13:01:53;;;;;;;2.33;2.13;;;1.80;99.90;;;;;;5060483;28;20032;-83
2023/03/07 13:04:34;;;;;;;2.17;1.85;;;1.80;99.90;;;;;;5075477;28;20347;-87
2023/03/07 13:07:17;;;;;;;2.35;2.08;;;1.80;99.90;;;;;;5076960;28;20040;-84
2023/03/07 13:09:49;;;;;;;2.90;2.08;;;1.90;99.90;;;;;;5070812;28;20031;-84
2023/03/07 13:12:15;;;;;;;2.40;2.20;;;1.90;99.90;;;;;;5071389;28;20024;-83
2023/03/07 13:14:52;;;;;;;2.15;2.00;;;1.90;99.90;;;;;;5060746;28;20377;-85
2023/03/07 13:17:31;;;;;;;2.53;1.92;;;1.90;99.90;;;;;;5077695;28;20024;-84
2023/03/07 13:20:00;;;;;;;2.33;2.08;;;1.90;99.90;;;;;;5075688;28;20039;-84
2023/03/07 13:22:26;;;;;;;2.00;1.90;;;2.00;99.90;;;;;;5071917;28;20111;-85
2023/03/07 13:24:59;;;;;;;2.28;2.10;;;1.90;99.90;;;;;;5063920;28;20552;-93
2023/03/07 13:27:44;;;;;;;2.70;2.25;;;2.00;99.90;;;;;;5078924;28;20048;-85
2023/03/07 13:30:13;;;;;;;2.42;2.03;;;2.00;99.90;;;;;;5083865;28;20030;-87
2023/03/07 13:32:51;;;;;;;2.58;2.17;;;2.00;99.90;;;;;;5077870;28;20101;-85
2023/03/07 13:35:37;;;;;;;2.30;2.10;;;2.10;99.90;;;;;;5068766;28;20032;-85
2023/03/07 13:38:42;;;;;;;2.10;1.90;;;2.00;99.90;;;;;;5074772;28;20123;-92
2023/03/07 13:41:10;;;;;;;1.80;1.70;;;2.10;99.90;;;;;;5065250;28;20036;-85
2023/03/07 13:43:45;;;;;;;2.08;1.88;;;2.20;99.90;;;;;;5071331;28;20033;-91
2023/03/07 13:46:28;;;;;;;3.25;2.20;;;2.20;99.90;;;;;;5082214;28;20032;-84
2023/03/07 13:48:53;;;;;;;2.65;2.00;;;2.20;99.90;;;;;;5070328;28;20059;-85
2023/03/07 13:51:19;;;;;;;5.53;2.47;;;2.20;99.90;;;;;;5085547;28;20078;-85
2023/03/07 13:54:00;;;;;;;2.72;2.40;;;2.20;99.90;;;;;;5071199;28;20028;-86
2023/03/07 13:56:34;;;;;;;2.50;2.00;;;2.20;99.90;;;;;;5078072;28;20020;-86
2023/03/07 13:59:20;;;;;;;3.95;2.30;;;2.20;99.90;;;;;;5076362;28;20028;-87
2023/03/07 14:01:56;;;;;;;2.78;2.13;;;2.20;99.90;;;;;;5046713;28;20028;-87
2023/03/07 14:04:58;;;;;;;2.20;2.00;;;2.20;99.90;;;;;;5068968;28;20033;-87
2023/03/07 14:07:28;;;;;;;2.63;2.13;;;2.20;99.90;;;;;;5004778;28;20055;-87
2023/03/07 14:10:05;;;;;;;3.45;2.08;;;2.20;99.90;;;;;;5079733;28;20036;-87
2023/03/07 14:13:04;;;;;;;2.72;2.20;;;2.30;99.90;;;;;;5066015;28;20025;-87
2023/03/07 14:15:55;;;;;;;2.92;2.40;;;2.30;99.90;;;;;;5076453;28;20059;-86
2023/03/07 14:18:36;;;;;;;3.85;2.28;;;2.30;99.90;;;;;;5049011;28;20032;-88
2023/03/07 14:21:08;;;;;;;2.67;2.28;;;2.40;99.90;;;;;;5073150;28;20501;-86
2023/03/07 14:23:55;;;;;;;3.95;2.42;;;2.40;99.90;;;;;;5074506;28;20031;-86
2023/03/07 14:26:39;;;;;;;3.25;2.50;;;2.40;99.90;;;;;;5030394;28;20072;-88
2023/03/07 14:29:13;;;;;;;2.42;2.22;;;2.40;99.90;;;;;;5034233;28;20021;-90
2023/03/07 14:31:41;;;;;;;2.85;2.13;;;2.30;99.90;;;;;;5040696;28;20477;-85
2023/03/07 14:34:25;;;;;;;3.47;2.58;;;2.30;99.90;;;;;;5041820;28;20475;-88
2023/03/07 14:36:58;;;;;;;2.67;2.47;;;2.30;99.90;;;;;;5028054;28;20402;-88
2023/03/07 14:39:41;;;;;;;2.53;2.33;;;2.30;99.90;;;;;;5034296;28;20385;-85
2023/03/07 14:42:27;;;;;;;3.55;3.25;;;2.30;99.90;;;;;;5026550;28;20030;-87
2023/03/07 14:45:02;;;;;;;4.47;2.85;;;2.30;99.90;;;;;;5028449;28;20036;-86
2023/03/07 14:47:46;;;;;;;2.90;2.67;;;2.20;99.90;;;;;;5035092;28;20040;-90
2023/03/07 14:50:14;;;;;;;7.55;3.90;;;2.20;99.90;;;;;;5019387;28;20107;-85
2023/03/07 14:52:42;;;;;;;9.70;6.03;;;2.20;99.90;;;;;;5055407;28;20060;-84
2023/03/07 14:55:16;;;;;;;7.75;5.47;;;2.30;99.90;;;;;;5024628;28;20544;-85
2023/03/07 14:57:45;;;;;;;9.88;6.05;;;2.30;99.90;;;;;;5034709;28;20023;-84
2023/03/07 15:00:19;;;;;;;4.93;4.18;;;2.30;99.90;;;;;;5026701;28;20049;-84
2023/03/07 15:02:54;;;;;;;7.88;4.50;;;2.30;99.90;;;;;;5020037;28;20422;-83
2023/03/07 15:05:26;;;;;;;9.25;4.97;;;2.30;99.90;;;;;;5014605;28;20069;-83
2023/03/07 15:07:53;;;;;;;6.10;4.25;;;2.40;99.90;;;;;;5026081;28;20124;-84
2023/03/07 15:10:40;;;;;;;3.95;3.35;;;2.40;99.90;;;;;;5025473;28;20025;-83
2023/03/07 15:13:31;;;;;;;5.80;4.68;;;2.40;99.90;;;;;;5033249;28;20131;-83
2023/03/07 15:16:02;;;;;;;5.15;4.53;;;2.40;99.90;;;;;;5024734;28;20133;-83
2023/03/07 15:18:33;;;;;;;6.07;4.32;;;2.40;99.90;;;;;;5028631;28;20017;-91
2023/03/07 15:21:00;;;;;;;5.80;4.00;;;2.40;99.90;;;;;;5031316;28;20430;-83
2023/03/07 15:23:28;;;;;;;6.90;5.50;;;2.40;99.90;;;;;;5034831;28;20064;-84
2023/03/07 15:26:06;;;;;;;5.60;4.70;;;2.40;99.90;;;;;;5064820;28;20060;-83
2023/03/07 15:28:34;;;;;;;8.13;4.82;;;2.40;99.90;;;;;;5069140;28;20025;-83
2023/03/07 15:31:01;;;;;;;5.85;5.28;;;2.40;99.90;;;;;;5062144;28;20032;-83
2023/03/07 15:33:30;;;;;;;5.85;5.18;;;2.50;99.90;;;;;;5056707;28;20079;-85
2023/03/07 15:36:16;;;;;;;6.88;4.72;;;2.40;99.90;;;;;;5062515;28;20078;-83
2023/03/07 15:38:43;;;;;;;;;;;2.40;99.90;;;;;;5062950;28;20055;-83
2023/03/07 15:41:30;;;;;;;8.02;4.55;;;2.40;99.90;;;;;;5066356;28;20117;-82
2023/03/07 15:44:15;;;;;;;6.00;4.43;;;2.40;99.90;;;;;;5070382;28;20409;-82
2023/03/07 15:46:51;;;;;;;2.72;2.00;;;2.40;99.90;;;;;;5064253;28;20105;-82
2023/03/07 15:49:26;;;;;;;2.20;2.00;;;2.40;99.90;;;;;;5080622;28;20043;-84
2023/03/07 15:51:53;;;;;;;;;;;2.40;99.90;;;;;;5068075;28;20112;-86
2023/03/07 15:54:38;;;;;;;44.65;20.92;;;2.30;99.90;;;;;;5073027;28;19912;-83
2023/03/07 15:57:25;;;;;;;13.82;6.95;;;2.40;99.90;;;;;;5067486;28;20028;-84
2023/03/07 16:00:06;;;;;;;6.65;4.57;;;2.40;99.90;;;;;;5082903;28;20064;-87
2023/03/07 16:02:40;;;;;;;1.73;1.63;;;2.40;99.90;;;;;;5061963;28;20043;-83
2023/03/07 16:05:27;;;;;;;2.83;2.15;;;2.40;99.90;;;;;;5061332;28;20042;-84
2023/03/07 16:07:56;;;;;;;2.20;2.10;;;2.40;99.90;;;;;;5069674;28;20039;-90
2023/03/07 16:10:26;;;;;;;2.47;2.35;;;2.30;99.90;;;;;;5062247;28;20025;-84
2023/03/07 16:12:51;;;;;;;8.40;6.25;;;2.30;99.90;;;;;;5068683;28;20111;-84
2023/03/07 16:15:22;;;;;;;6.40;5.80;;;2.30;99.90;;;;;;5067680;28;20218;-90
2023/03/07 16:17:52;;;;;;;5.35;4.38;;;2.40;99.90;;;;;;5057969;28;20025;-85
2023/03/07 16:20:23;;;;;;;3.97;3.08;;;2.40;99.90;;;;;;5066210;28;20023;-85
2023/03/07 16:22:49;;;;;;;2.35;2.17;;;2.40;99.90;;;;;;5067367;28;20062;-83
2023/03/07 16:25:15;;;;;;;3.10;2.33;;;2.40;99.90;;;;;;5068132;28;20039;-84
2023/03/07 16:27:46;;;;;;;8.85;4.10;;;2.40;99.90;;;;;;5060151;28;20036;-83
2023/03/07 16:30:16;;;;;;;7.68;3.80;;;2.40;99.90;;;;;;5066709;28;20020;-84
2023/03/07 16:32:42;;;;;;;12.70;6.45;;;2.30;99.90;;;;;;5068572;28;20036;-83
2023/03/07 16:35:23;;;;;;;11.90;6.03;;;2.40;99.90;;;;;;5065241;28;20024;-83
2023/03/07 16:37:49;;;;;;;11.90;5.93;;;2.40;99.90;;;;;;5057163;28;20024;-86
2023/03/07 16:40:15;;;;;;;14.52;6.78;;;2.40;99.90;;;;;;5059642;28;20036;-88
2023/03/07 16:42:43;;;;;;;11.85;6.40;;;2.30;99.90;;;;;;5070306;28;20035;-84
2023/03/07 16:45:17;;;;;;;17.75;7.03;;;2.30;99.90;;;;;;5059475;28;20040;-84
2023/03/07 16:47:43;;;;;;;25.85;10.00;;;2.30;99.90;;;;;;5054635;28;20050;-86
2023/03/07 16:50:16;;;;;;;16.75;7.75;;;2.30;99.90;;;;;;5073666;28;20032;-81
2023/03/07 16:52:42;;;;;;;20.83;8.18;;;2.30;99.90;;;;;;5066071;28;20036;-87
2023/03/07 16:55:11;;;;;;;14.98;6.28;;;2.30;99.90;;;;;;5063538;28;20374;-86
2023/03/07 16:57:37;;;;;;;8.30;4.72;;;2.30;99.90;;;;;;5070460;28;20394;-85
2023/03/07 17:00:05;;;;;;;10.52;5.45;;;2.30;99.90;;;;;;5076384;28;20483;-83
2023/03/07 17:02:31;;;;;;;6.35;3.50;;;2.30;99.90;;;;;;5075401;28;20024;-85
2023/03/07 17:04:56;;;;;;;5.50;3.30;;;2.30;99.90;;;;;;5076143;28;20043;-83
2023/03/07 17:07:22;;;;;;;3.60;2.92;;;2.20;99.90;;;;;;5055392;28;20036;-86
2023/03/07 17:09:48;;;;;;;4.38;2.80;;;2.20;99.90;;;;;;5075707;28;20017;-84
2023/03/07 17:12:15;;;;;;;2.85;2.47;;;2.20;99.90;;;;;;5076132;28;20028;-83
2023/03/07 17:14:41;;;;;;;3.47;2.63;;;2.20;99.90;;;;;;5075450;28;20595;-83
2023/03/07 17:17:15;;;;;;;3.42;2.60;;;2.20;99.90;;;;;;5071287;28;20247;-84
2023/03/07 17:19:41;;;;;;;4.68;3.30;;;2.20;99.90;;;;;;5072842;28;20110;-83
2023/03/07 17:22:08;;;;;;;3.95;3.38;;;2.20;99.90;;;;;;5069817;28;20071;-83
2023/03/07 17:24:33;;;;;;;4.53;3.70;;;2.20;99.90;;;;;;5073349;28;20472;-83
2023/03/07 17:27:02;;;;;;;3.80;3.40;;;2.10;99.90;;;;;;5076192;28;20028;-83
2023/03/07 17:29:53;;;;;;;3.40;2.90;;;2.10;99.90;;;;;;5086439;28;20116;-86
2023/03/07 17:32:19;;;;;;;5.45;2.95;;;2.10;99.90;;;;;;5077153;28;20028;-84
2023/03/07 17:34:44;;;;;;;5.72;3.17;;;2.10;99.90;;;;;;5081484;28;20028;-84
2023/03/07 17:37:11;;;;;;;3.67;2.97;;;2.10;99.90;;;;;;5078971;28;20024;-84
2023/03/07 17:39:37;;;;;;;6.82;3.38;;;2.10;99.90;;;;;;5069276;28;20439;-86
2023/03/07 17:42:03;;;;;;;4.43;3.05;;;2.10;99.90;;;;;;5071308;28;20052;-92
2023/03/07 17:44:30;;;;;;;4.15;3.20;;;2.10;99.90;;;;;;5075007;28;20119;-84
2023/03/07 17:46:56;;;;;;;8.38;3.72;;;2.10;99.90;;;;;;5073243;28;20067;-85
2023/03/07 17:49:23;;;;;;;9.13;4.80;;;2.10;99.90;;;;;;5079809;28;20048;-86
2023/03/07 17:51:48;;;;;;;5.68;5.18;;;2.00;99.90;;;;;;5069820;28;20469;-83
2023/03/07 17:54:15;;;;;;;5.80;4.15;;;2.00;99.90;;;;;;5073464;28;20115;-83
2023/03/07 17:56:41;;;;;;;5.70;4.13;;;1.80;99.90;;;;;;5077086;28;20025;-84
2023/03/07 17:59:06;;;;;;;4.18;3.78;;;1.80;99.90;;;;;;5073105;28;20024;-83
2023/03/07 18:01:34;;;;;;;4.28;3.10;;;1.70;99.90;;;;;;5066165;28;20075;-83
2023/03/07 18:04:09;;;;;;;2.67;2.47;;;1.60;99.90;;;;;;5059066;28;20414;-83
2023/03/07 18:06:35;;;;;;;3.95;2.85;;;1.50;99.90;;;;;;5057610;28;20032;-82
2023/03/07 18:09:04;;;;;;;2.08;1.98;;;1.50;99.90;;;;;;5063230;28;20040;-82
2023/03/07 18:11:30;;;;;;;3.75;2.20;;;1.50;99.90;;;;;;5067056;28;20036;-84
2023/03/07 18:13:56;;;;;;;3.10;1.70;;;1.40;99.90;;;;;;5062041;28;20359;-82
2023/03/07 18:16:21;;;;;;;2.05;1.75;;;1.30;99.90;;;;;;5065433;28;20395;-83
2023/03/07 18:18:47;;;;;;;6.40;2.22;;;1.20;99.90;;;;;;5073582;28;20317;-82
2023/03/07 18:21:15;;;;;;;11.57;2.40;;;1.20;99.90;;;;;;5058894;28;20024;-83
2023/03/07 18:23:41;;;;;;;3.05;1.73;;;1.10;99.90;;;;;;5068241;28;20020;-83
2023/03/07 18:26:10;;;;;;;3.60;2.00;;;1.10;99.90;;;;;;5047469;28;20079;-85
2023/03/07 18:28:38;;;;;;;9.00;2.70;;;1.00;99.90;;;;;;5064705;28;20063;-84
2023/03/07 18:31:06;;;;;;;12.73;2.53;;;1.00;99.90;;;;;;5061765;28;20029;-85
2023/03/07 18:33:34;;;;;;;5.05;2.20;;;1.00;99.90;;;;;;5063176;28;20036;-91
2023/03/07 18:36:01;;;;;;;8.57;2.65;;;0.90;99.90;;;;;;5058866;28;20032;-83
2023/03/07 18:38:26;;;;;;;10.98;2.45;;;0.90;99.90;;;;;;5059421;28;20036;-83
2023/03/07 18:41:03;;;;;;;4.10;2.15;;;0.90;99.90;;;;;;5060549;28;20261;-84
2023/03/07 18:43:29;;;;;;;3.65;2.15;;;0.80;99.90;;;;;;5059037;28;20033;-85
2023/03/07 18:45:54;;;;;;;8.35;2.35;;;0.80;99.90;;;;;;5060833;28;20048;-84
2023/03/07 18:48:19;;;;;;;5.22;2.40;;;0.80;99.90;;;;;;5056648;28;20017;-87
2023/03/07 18:50:55;;;;;;;9.38;2.63;;;0.80;99.90;;;;;;5079528;28;20047;-84
2023/03/07 18:53:23;;;;;;;14.98;3.10;;;0.90;99.90;;;;;;5064280;28;20151;-83
2023/03/07 18:55:49;;;;;;;10.82;2.92;;;0.90;99.90;;;;;;5069620;28;20035;-87
2023/03/07 18:58:14;;;;;;;4.45;2.30;;;0.90;99.90;;;;;;5071470;28;20016;-82
2023/03/07 19:00:40;;;;;;;6.38;2.38;;;0.80;99.90;;;;;;5070854;28;20024;-83
2023/03/07 19:03:05;;;;;;;5.68;2.22;;;0.80;99.90;;;;;;5054995;28;20035;-85
2023/03/07 19:05:31;;;;;;;2.55;1.90;;;0.90;99.90;;;;;;5054011;28;20035;-86
2023/03/07 19:07:56;;;;;;;9.18;3.47;;;0.80;99.90;;;;;;5053463;28;20016;-84
2023/03/07 19:10:22;;;;;;;10.10;2.63;;;0.90;99.90;;;;;;5057328;28;20025;-84
2023/03/07 19:12:47;;;;;;;8.05;2.65;;;0.80;99.90;;;;;;5071273;28;20044;-85
2023/03/07 19:15:13;;;;;;;5.10;3.00;;;0.80;99.90;;;;;;5065194;28;20025;-90
2023/03/07 19:17:40;;;;;;;9.60;2.80;;;0.80;99.90;;;;;;5070330;28;20024;-84
2023/03/07 19:20:06;;;;;;;10.05;3.15;;;0.80;99.90;;;;;;5048331;28;20024;-85
2023/03/07 19:22:32;;;;;;;15.00;4.35;;;0.80;99.90;;;;;;5067416;28;20047;-83
2023/03/07 19:25:05;;;;;;;16.20;3.70;;;0.80;99.90;;;;;;5070337;28;20454;-84
2023/03/07 19:27:32;;;;;;;7.43;2.90;;;0.90;99.90;;;;;;5063694;28;20032;-82
2023/03/07 19:29:57;;;;;;;10.20;2.78;;;0.80;99.90;;;;;;5072739;28;20535;-83
2023/03/07 19:32:23;;;;;;;8.50;3.17;;;0.90;99.90;;;;;;5069044;28;20246;-86
2023/03/07 19:34:49;;;;;;;9.43;3.95;;;0.90;99.90;;;;;;5067774;28;20020;-84
2023/03/07 19:37:15;;;;;;;7.53;2.83;;;0.80;99.90;;;;;;5070357;28;20032;-83
2023/03/07 19:39:40;;;;;;;12.68;3.17;;;0.80;99.90;;;;;;5075348;28;20024;-83
2023/03/07 19:42:06;;;;;;;4.03;2.30;;;0.80;99.90;;;;;;5064451;28;20086;-83
2023/03/07 19:44:31;;;;;;;26.77;10.25;;;0.80;99.90;;;;;;5070665;28;20044;-85
2023/03/07 19:46:57;;;;;;;28.52;9.35;;;0.80;99.90;;;;;;5064669;28;20316;-83
2023/03/07 19:49:25;;;;;;;10.65;3.20;;;0.80;99.90;;;;;;5077498;28;20034;-83
2023/03/07 19:51:51;;;;;;;9.18;4.47;;;0.80;99.90;;;;;;5071333;28;20128;-82
2023/03/07 19:54:16;;;;;;;12.77;6.85;;;0.80;99.90;;;;;;5066366;28;20115;-84
2023/03/07 19:56:44;;;;;;;22.27;7.85;;;0.80;99.90;;;;;;5055211;28;20550;-84
2023/03/07 19:59:10;;;;;;;6.03;3.55;;;0.80;99.90;;;;;;5068016;28;20253;-84
2023/03/07 20:01:36;;;;;;;9.00;4.45;;;0.80;99.90;;;;;;5054193;28;20035;-89
2023/03/07 20:04:03;;;;;;;13.35;4.57;;;0.80;99.90;;;;;;5071175;28;20032;-81
2023/03/07 20:06:30;;;;;;;28.10;11.60;;;0.80;99.90;;;;;;5071400;28;20036;-83
2023/03/07 20:08:57;;;;;;;43.28;16.50;;;0.80;99.90;;;;;;5067826;28;20109;-83
2023/03/07 20:11:27;;;;;;;40.05;15.20;;;0.80;99.90;;;;;;5067382;28;20373;-84
2023/03/07 20:13:54;;;;;;;42.45;16.52;;;0.90;99.90;;;;;;5071596;28;20037;-84
2023/03/07 20:16:19;;;;;;;20.17;7.15;;;0.80;99.90;;;;;;5072979;28;20020;-85
2023/03/07 20:18:50;;;;;;;23.33;8.30;;;0.80;99.90;;;;;;5071216;28;20511;-83
2023/03/07 20:21:16;;;;;;;49.03;17.45;;;0.80;99.90;;;;;;5071969;28;20554;-86
2023/03/07 20:23:44;;;;;;;83.38;28.00;;;0.80;99.90;;;;;;5067373;28;20396;-83
2023/03/07 20:26:13;;;;;;;48.47;16.35;;;0.90;99.90;;;;;;5066312;28;20068;-82
2023/03/07 20:28:38;;;;;;;22.38;6.82;;;0.90;99.90;;;;;;5060334;28;20027;-83
2023/03/07 20:31:09;;;;;;;10.63;5.53;;;0.80;99.90;;;;;;5055980;28;20033;-82
2023/03/07 20:33:40;;;;;;;13.48;5.07;;;0.80;99.90;;;;;;5076242;28;20107;-83
2023/03/07 20:36:23;;;;;;;10.68;5.22;;;0.80;99.90;;;;;;5060941;28;20050;-85
2023/03/07 20:38:50;;;;;;;5.65;2.78;;;0.80;99.90;;;;;;5079465;28;20542;-83
2023/03/07 20:41:19;;;;;;;7.30;3.72;;;0.80;99.90;;;;;;5070612;28;20062;-83
2023/03/07 20:43:45;;;;;;;10.63;4.18;;;0.80;99.90;;;;;;5066304;28;20103;-83
2023/03/07 20:46:13;;;;;;;6.70;3.40;;;0.80;99.90;;;;;;5059455;28;20094;-83
2023/03/07 20:48:39;;;;;;;4.68;2.42;;;0.80;99.90;;;;;;5074311;28;20393;-82
2023/03/07 20:51:22;;;;;;;6.18;2.45;;;0.80;99.90;;;;;;5064599;28;20040;-82
2023/03/07 20:53:50;;;;;;;3.33;2.10;;;0.80;99.90;;;;;;5065352;28;20028;-84
2023/03/07 20:56:17;;;;;;;6.32;2.50;;;0.80;99.90;;;;;;5067614;28;20032;-84
2023/03/07 20:58:42;;;;;;;8.98;2.58;;;0.80;99.90;;;;;;5069997;28;20028;-82
2023/03/07 21:01:09;;;;;;;4.50;2.15;;;0.80;99.90;;;;;;5068909;28;20119;-83
2023/03/07 21:03:36;;;;;;;7.05;2.00;;;0.80;99.90;;;;;;5066850;28;20473;-84
2023/03/07 21:06:04;;;;;;;8.32;2.40;;;0.80;99.90;;;;;;5063770;28;20477;-83
2023/03/07 21:08:33;;;;;;;6.22;2.20;;;0.80;99.90;;;;;;5068626;28;20028;-83
2023/03/07 21:11:00;;;;;;;6.70;2.08;;;0.80;99.90;;;;;;5066499;28;20036;-86
2023/03/07 21:13:27;;;;;;;3.13;1.95;;;0.80;99.90;;;;;;5061329;28;20472;-83
2023/03/07 21:15:58;;;;;;;4.05;2.10;;;0.80;99.90;;;;;;5063131;28;20032;-83
2023/03/07 21:18:24;;;;;;;5.38;2.75;;;0.80;99.90;;;;;;5057725;28;20078;-84
2023/03/07 21:20:50;;;;;;;4.65;3.05;;;0.80;99.90;;;;;;5067691;28;20041;-85
2023/03/07 21:23:16;;;;;;;3.25;2.47;;;0.80;99.90;;;;;;5067556;28;20039;-84
2023/03/07 21:25:43;;;;;;;7.30;2.20;;;0.80;99.90;;;;;;5064062;28;20101;-83
2023/03/07 21:28:09;;;;;;;8.88;2.35;;;0.80;99.90;;;;;;5066323;28;20048;-83
2023/03/07 21:30:35;;;;;;;6.30;2.67;;;0.80;99.90;;;;;;5072834;28;20056;-85
2023/03/07 21:33:00;;;;;;;4.75;2.22;;;0.80;99.90;;;;;;5073330;28;20071;-82
2023/03/07 21:35:26;;;;;;;7.03;2.67;;;0.80;99.90;;;;;;5075082;28;20469;-83
2023/03/07 21:37:52;;;;;;;4.65;2.38;;;0.80;99.90;;;;;;5069542;28;20066;-83
2023/03/07 21:40:17;;;;;;;5.78;2.47;;;0.80;99.90;;;;;;5076313;28;20020;-82
2023/03/07 21:42:46;;;;;;;5.85;1.77;;;0.80;99.90;;;;;;5071157;28;20032;-92
2023/03/07 21:45:13;;;;;;;5.82;2.10;;;0.80;99.90;;;;;;5075171;28;20036;-82
2023/03/07 21:47:39;;;;;;;13.82;2.28;;;0.80;99.90;;;;;;5058012;28;20055;-83
2023/03/07 21:50:05;;;;;;;4.38;1.90;;;0.80;99.90;;;;;;5068751;28;20055;-86
2023/03/07 21:52:30;;;;;;;10.38;2.20;;;0.70;99.90;;;;;;5069080;28;20055;-82
2023/03/07 21:54:56;;;;;;;7.30;2.20;;;0.70;99.90;;;;;;5069424;28;20351;-82
2023/03/07 21:57:21;;;;;;;7.97;1.92;;;0.70;99.90;;;;;;5070429;28;20032;-83
2023/03/07 21:59:47;;;;;;;6.70;1.70;;;0.70;99.90;;;;;;5072033;28;20578;-82
2023/03/07 22:02:13;;;;;;;4.03;1.80;;;0.70;99.90;;;;;;5070593;28;20035;-91
2023/03/07 22:04:39;;;;;;;4.50;1.85;;;0.70;99.90;;;;;;5067965;28;20036;-82
2023/03/07 22:07:05;;;;;;;5.15;1.83;;;0.70;99.90;;;;;;5070746;28;20381;-86
2023/03/07 22:09:30;;;;;;;5.18;1.73;;;0.70;99.90;;;;;;5071589;28;20513;-84
2023/03/07 22:11:56;;;;;;;5.63;1.73;;;0.80;99.90;;;;;;5062140;28;20166;-82
2023/03/07 22:14:22;;;;;;;6.88;1.77;;;0.80;99.90;;;;;;5070850;28;20029;-82
2023/03/07 22:16:48;;;;;;;14.80;3.10;;;0.80;99.90;;;;;;5077543;28;20028;-95
2023/03/07 22:19:14;;;;;;;9.05;2.10;;;0.70;99.90;;;;;;5058563;28;20040;-85
2023/03/07 22:21:39;;;;;;;6.45;1.98;;;0.80;99.90;;;;;;5066789;28;20028;-82
2023/03/07 22:24:05;;;;;;;9.23;1.95;;;0.70;99.90;;;;;;5071263;28;20053;-88
2023/03/07 22:26:31;;;;;;;7.70;1.70;;;0.70;99.90;;;;;;5061556;28;20033;-83
2023/03/07 22:28:58;;;;;;;12.80;2.95;;;0.80;99.90;;;;;;5075967;28;20564;-82
2023/03/07 22:31:24;;;;;;;11.70;2.35;;;0.80;99.90;;;;;;5069248;28;20435;-81
2023/03/07 22:33:50;;;;;;;5.07;1.90;;;0.80;99.90;;;;;;5066861;28;20036;-87
2023/03/07 22:36:15;;;;;;;7.43;1.98;;;0.80;99.90;;;;;;5072122;28;20532;-81
2023/03/07 22:38:42;;;;;;;5.60;1.98;;;0.70;99.90;;;;;;5055897;28;20024;-82
2023/03/07 22:41:14;;;;;;;6.68;1.70;;;0.80;99.90;;;;;;5070906;28;20052;-83
2023/03/07 22:43:41;;;;;;;6.13;1.80;;;0.80;99.90;;;;;;5063001;28;20040;-82
2023/03/07 22:46:07;;;;;;;9.68;1.95;;;0.70;99.90;;;;;;5048746;28;20052;-89
2023/03/07 22:48:33;;;;;;;3.13;1.75;;;0.70;99.90;;;;;;5067051;28;20367;-81
2023/03/07 22:50:59;;;;;;;5.57;2.28;;;0.70;99.90;;;;;;5060488;28;20478;-84
2023/03/07 22:53:29;;;;;;;6.07;1.88;;;0.70;99.90;;;;;;5075528;28;20032;-86
2023/03/07 22:55:58;;;;;;;7.50;1.83;;;0.70;99.90;;;;;;5071550;28;20025;-82
2023/03/07 22:58:23;;;;;;;5.88;1.95;;;0.70;99.90;;;;;;5075246;28;20021;-85
2023/03/07 23:00:49;;;;;;;14.55;2.10;;;0.70;99.90;;;;;;5064208;28;20038;-82
2023/03/07 23:03:15;;;;;;;6.65;2.17;;;0.80;99.90;;;;;;5057710;28;20401;-82
2023/03/07 23:05:41;;;;;;;4.85;2.70;;;0.80;99.90;;;;;;5054201;28;20508;-83
2023/03/07 23:08:06;;;;;;;15.18;1.83;;;0.80;99.90;;;;;;5055171;28;20031;-84
2023/03/07 23:10:32;;;;;;;9.45;2.25;;;0.70;99.90;;;;;;5057825;28;20482;-83
2023/03/07 23:12:58;;;;;;;13.18;2.33;;;0.70;99.90;;;;;;5056594;28;20416;-82
2023/03/07 23:15:24;;;;;;;3.97;2.65;;;0.70;99.90;;;;;;5057543;28;20032;-85
2023/03/07 23:17:50;;;;;;;18.17;2.35;;;0.80;99.90;;;;;;5056920;28;20037;-84
2023/03/07 23:20:17;;;;;;;10.57;2.10;;;0.80;99.90;;;;;;5058102;28;20025;-82
2023/03/07 23:22:44;;;;;;;9.45;2.47;;;0.80;99.90;;;;;;5052910;28;20564;-84
2023/03/07 23:25:10;;;;;;;3.10;1.58;;;0.80;99.90;;;;;;5051502;28;20118;-83
2023/03/07 23:27:38;;;;;;;4.40;1.73;;;0.80;99.90;;;;;;5055864;28;20111;-88
2023/03/07 23:30:05;;;;;;;5.95;2.13;;;0.80;99.90;;;;;;5056424;28;20033;-84
2023/03/07 23:32:30;;;;;;;6.85;1.80;;;0.80;99.90;;;;;;5057388;28;20033;-82
2023/03/07 23:34:56;;;;;;;6.43;1.92;;;0.70;99.90;;;;;;5066432;28;20338;-82
2023/03/07 23:37:21;;;;;;;7.55;1.80;;;0.80;99.90;;;;;;5067318;28;20107;-87